sensor_id;sensor_type;location;lat;lon;timestamp;pressure;altitude;pressure_sealevel;temperature
61703;BMP280;47622;47.726;3.298;2024-03-07T00:00:34;99535.06;;;0.96
61703;BMP280;47622;47.726;3.298;2024-03-07T00:03:00;99526.63;;;1.01
61703;BMP280;47622;47.726;3.298;2024-03-07T00:05:26;99525.53;;;0.97
61703;BMP280;47622;47.726;3.298;2024-03-07T00:07:52;99528.53;;;0.94
61703;BMP280;47622;47.726;3.298;2024-03-07T00:10:18;99528.44;;;1.00
61703;BMP280;47622;47.726;3.298;2024-03-07T00:12:44;99533.13;;;0.92
61703;BMP280;47622;47.726;3.298;2024-03-07T00:15:11;99534.69;;;0.93
61703;BMP280;47622;47.726;3.298;2024-03-07T00:17:38;99529.97;;;0.90
61703;BMP280;47622;47.726;3.298;2024-03-07T00:20:05;99533.13;;;0.92
61703;BMP280;47622;47.726;3.298;2024-03-07T00:22:35;99528.41;;;0.89
61703;BMP280;47622;47.726;3.298;2024-03-07T00:25:01;99526.84;;;0.88
61703;BMP280;47622;47.726;3.298;2024-03-07T00:27:27;99528.41;;;0.89
61703;BMP280;47622;47.726;3.298;2024-03-07T00:29:53;99526.19;;;0.74
61703;BMP280;47622;47.726;3.298;2024-03-07T00:32:20;99515.88;;;0.74
61703;BMP280;47622;47.726;3.298;2024-03-07T00:34:47;99524.53;;;0.79
61703;BMP280;47622;47.726;3.298;2024-03-07T00:37:12;99522.56;;;0.82
61703;BMP280;47622;47.726;3.298;2024-03-07T00:39:38;99520.53;;;0.84
61703;BMP280;47622;47.726;3.298;2024-03-07T00:42:04;99510.22;;;0.84
61703;BMP280;47622;47.726;3.298;2024-03-07T00:44:30;99507.41;;;0.85
61703;BMP280;47622;47.726;3.298;2024-03-07T00:46:56;99511.78;;;0.85
61703;BMP280;47622;47.726;3.298;2024-03-07T00:49:22;99514.22;;;0.79
61703;BMP280;47622;47.726;3.298;2024-03-07T00:51:48;99499.31;;;0.82
61703;BMP280;47622;47.726;3.298;2024-03-07T00:54:13;99515.22;;;0.78
61703;BMP280;47622;47.726;3.298;2024-03-07T00:56:40;99504.91;;;0.78
61703;BMP280;47622;47.726;3.298;2024-03-07T00:59:06;99503.66;;;0.69
61703;BMP280;47622;47.726;3.298;2024-03-07T01:01:32;99509.59;;;0.70
61703;BMP280;47622;47.726;3.298;2024-03-07T01:04:03;99504.09;;;0.66
61703;BMP280;47622;47.726;3.298;2024-03-07T01:06:29;99504.78;;;0.73
61703;BMP280;47622;47.726;3.298;2024-03-07T01:08:54;99500.50;;;0.67
61703;BMP280;47622;47.726;3.298;2024-03-07T01:11:20;99496.56;;;0.65
61703;BMP280;47622;47.726;3.298;2024-03-07T01:13:45;99488.34;;;0.56
61703;BMP280;47622;47.726;3.298;2024-03-07T01:16:11;99492.06;;;0.60
61703;BMP280;47622;47.726;3.298;2024-03-07T01:18:37;99494.66;;;0.60
61703;BMP280;47622;47.726;3.298;2024-03-07T01:21:04;99492.28;;;0.59
61703;BMP280;47622;47.726;3.298;2024-03-07T01:23:31;99489.63;;;0.47
61703;BMP280;47622;47.726;3.298;2024-03-07T01:25:57;99482.81;;;0.52
61703;BMP280;47622;47.726;3.298;2024-03-07T01:28:23;99492.44;;;0.45
61703;BMP280;47622;47.726;3.298;2024-03-07T01:30:52;99490.41;;;0.47
61703;BMP280;47622;47.726;3.298;2024-03-07T01:33:19;99486.03;;;0.48
61703;BMP280;47622;47.726;3.298;2024-03-07T01:35:45;99473.25;;;0.41
61703;BMP280;47622;47.726;3.298;2024-03-07T01:38:11;99471.44;;;0.42
61703;BMP280;47622;47.726;3.298;2024-03-07T01:40:42;99468.28;;;0.28
61703;BMP280;47622;47.726;3.298;2024-03-07T01:43:09;99470.50;;;0.24
61703;BMP280;47622;47.726;3.298;2024-03-07T01:45:35;99466.84;;;0.32
61703;BMP280;47622;47.726;3.298;2024-03-07T01:48:09;99461.13;;;0.42
61703;BMP280;47622;47.726;3.298;2024-03-07T01:50:38;99458.00;;;0.40
61703;BMP280;47622;47.726;3.298;2024-03-07T01:53:04;99456.06;;;0.35
61703;BMP280;47622;47.726;3.298;2024-03-07T01:55:32;99450.13;;;0.35
61703;BMP280;47622;47.726;3.298;2024-03-07T01:57:59;99459.00;;;0.39
61703;BMP280;47622;47.726;3.298;2024-03-07T02:00:25;99454.84;;;0.38
61703;BMP280;47622;47.726;3.298;2024-03-07T02:02:53;99440.97;;;0.39
61703;BMP280;47622;47.726;3.298;2024-03-07T02:05:19;99436.50;;;0.46
61703;BMP280;47622;47.726;3.298;2024-03-07T02:07:45;99431.78;;;0.43
61703;BMP280;47622;47.726;3.298;2024-03-07T02:10:10;99438.50;;;0.44
61703;BMP280;47622;47.726;3.298;2024-03-07T02:12:36;99442.53;;;0.40
61703;BMP280;47622;47.726;3.298;2024-03-07T02:15:02;99430.19;;;0.42
61703;BMP280;47622;47.726;3.298;2024-03-07T02:17:28;99428.19;;;0.44
61703;BMP280;47622;47.726;3.298;2024-03-07T02:19:54;99428.25;;;0.37
61703;BMP280;47622;47.726;3.298;2024-03-07T02:22:20;99427.00;;;0.16
61703;BMP280;47622;47.726;3.298;2024-03-07T02:24:46;99414.09;;;0.16
61703;BMP280;47622;47.726;3.298;2024-03-07T02:27:12;99410.19;;;0.25
61703;BMP280;47622;47.726;3.298;2024-03-07T02:29:40;99411.34;;;0.30
61703;BMP280;47622;47.726;3.298;2024-03-07T02:32:06;99406.53;;;0.33
61703;BMP280;47622;47.726;3.298;2024-03-07T02:34:31;99409.44;;;0.37
61703;BMP280;47622;47.726;3.298;2024-03-07T02:36:57;99402.31;;;0.50
61703;BMP280;47622;47.726;3.298;2024-03-07T02:39:22;99401.06;;;0.53
61703;BMP280;47622;47.726;3.298;2024-03-07T02:41:50;99389.53;;;0.44
61703;BMP280;47622;47.726;3.298;2024-03-07T02:44:16;99390.16;;;0.28
61703;BMP280;47622;47.726;3.298;2024-03-07T02:46:41;99395.97;;;0.23
61703;BMP280;47622;47.726;3.298;2024-03-07T02:49:07;99394.59;;;0.20
61703;BMP280;47622;47.726;3.298;2024-03-07T02:51:33;99392.97;;;0.38
61703;BMP280;47622;47.726;3.298;2024-03-07T02:53:58;99396.53;;;0.37
61703;BMP280;47622;47.726;3.298;2024-03-07T02:56:24;99388.25;;;0.35
61703;BMP280;47622;47.726;3.298;2024-03-07T02:58:53;99389.19;;;0.52
61703;BMP280;47622;47.726;3.298;2024-03-07T03:01:18;99393.16;;;0.55
61703;BMP280;47622;47.726;3.298;2024-03-07T03:03:44;99391.72;;;0.29
61703;BMP280;47622;47.726;3.298;2024-03-07T03:06:10;99388.25;;;0.05
61703;BMP280;47622;47.726;3.298;2024-03-07T03:08:36;99374.44;;;-0.01
61703;BMP280;47622;47.726;3.298;2024-03-07T03:11:02;99394.41;;;0.04
61703;BMP280;47622;47.726;3.298;2024-03-07T03:13:29;99381.16;;;0.18
61703;BMP280;47622;47.726;3.298;2024-03-07T03:15:57;99376.13;;;0.23
61703;BMP280;47622;47.726;3.298;2024-03-07T03:18:23;99369.06;;;0.19
61703;BMP280;47622;47.726;3.298;2024-03-07T03:20:49;99363.75;;;0.14
61703;BMP280;47622;47.726;3.298;2024-03-07T03:23:15;99365.44;;;0.08
61703;BMP280;47622;47.726;3.298;2024-03-07T03:25:41;99367.09;;;0.03
61703;BMP280;47622;47.726;3.298;2024-03-07T03:28:07;99361.28;;;-0.11
61703;BMP280;47622;47.726;3.298;2024-03-07T03:30:40;99362.75;;;-0.15
61703;BMP280;47622;47.726;3.298;2024-03-07T03:33:09;99354.44;;;-0.17
61703;BMP280;47622;47.726;3.298;2024-03-07T03:35:36;99364.75;;;-0.17
61703;BMP280;47622;47.726;3.298;2024-03-07T03:38:02;99354.81;;;-0.14
61703;BMP280;47622;47.726;3.298;2024-03-07T03:40:28;99357.88;;;-0.05
61703;BMP280;47622;47.726;3.298;2024-03-07T03:42:53;99347.81;;;0.05
61703;BMP280;47622;47.726;3.298;2024-03-07T03:45:19;99344.59;;;0.10
61703;BMP280;47622;47.726;3.298;2024-03-07T03:47:45;99350.78;;;0.20
61703;BMP280;47622;47.726;3.298;2024-03-07T03:50:12;99347.66;;;0.18
61703;BMP280;47622;47.726;3.298;2024-03-07T03:52:40;99337.78;;;0.15
61703;BMP280;47622;47.726;3.298;2024-03-07T03:55:07;99344.75;;;0.26
61703;BMP280;47622;47.726;3.298;2024-03-07T03:57:40;99334.44;;;0.26
61703;BMP280;47622;47.726;3.298;2024-03-07T04:00:08;99332.94;;;0.07
61703;BMP280;47622;47.726;3.298;2024-03-07T04:02:44;99329.06;;;0.16
61703;BMP280;47622;47.726;3.298;2024-03-07T04:05:13;99328.34;;;0.09
61703;BMP280;47622;47.726;3.298;2024-03-07T04:07:40;99330.63;;;0.17
61703;BMP280;47622;47.726;3.298;2024-03-07T04:10:08;99325.00;;;0.20
61703;BMP280;47622;47.726;3.298;2024-03-07T04:12:41;99327.75;;;-0.05
61703;BMP280;47622;47.726;3.298;2024-03-07T04:15:08;99322.91;;;-0.01
61703;BMP280;47622;47.726;3.298;2024-03-07T04:17:34;99326.09;;;0.01
61703;BMP280;47622;47.726;3.298;2024-03-07T04:20:01;99329.91;;;0.10
61703;BMP280;47622;47.726;3.298;2024-03-07T04:22:31;99320.19;;;0.12
61703;BMP280;47622;47.726;3.298;2024-03-07T04:24:57;99300.47;;;-0.12
61703;BMP280;47622;47.726;3.298;2024-03-07T04:27:22;99309.97;;;-0.24
61703;BMP280;47622;47.726;3.298;2024-03-07T04:29:48;99305.69;;;-0.31
61703;BMP280;47622;47.726;3.298;2024-03-07T04:32:14;99300.34;;;-0.36
61703;BMP280;47622;47.726;3.298;2024-03-07T04:34:40;99299.06;;;-0.45
61703;BMP280;47622;47.726;3.298;2024-03-07T04:37:06;99310.09;;;-0.56
61703;BMP280;47622;47.726;3.298;2024-03-07T04:39:31;99314.59;;;-0.52
61703;BMP280;47622;47.726;3.298;2024-03-07T04:42:04;99309.22;;;-0.50
61703;BMP280;47622;47.726;3.298;2024-03-07T04:44:33;99312.81;;;-0.51
61703;BMP280;47622;47.726;3.298;2024-03-07T04:47:00;99310.97;;;-0.62
61703;BMP280;47622;47.726;3.298;2024-03-07T04:49:27;99315.03;;;-0.73
61703;BMP280;47622;47.726;3.298;2024-03-07T04:51:55;99309.50;;;-0.76
61703;BMP280;47622;47.726;3.298;2024-03-07T04:54:21;99308.66;;;-0.70
61703;BMP280;47622;47.726;3.298;2024-03-07T04:56:48;99303.66;;;-0.65
61703;BMP280;47622;47.726;3.298;2024-03-07T04:59:14;99310.09;;;-0.56
61703;BMP280;47622;47.726;3.298;2024-03-07T05:01:40;99303.28;;;-0.50
61703;BMP280;47622;47.726;3.298;2024-03-07T05:04:06;99297.78;;;-0.54
61703;BMP280;47622;47.726;3.298;2024-03-07T05:06:33;99303.66;;;-0.47
61703;BMP280;47622;47.726;3.298;2024-03-07T05:09:02;99288.63;;;-0.50
61703;BMP280;47622;47.726;3.298;2024-03-07T05:11:32;99292.63;;;-0.36
61703;BMP280;47622;47.726;3.298;2024-03-07T05:13:58;99290.84;;;-0.35
61703;BMP280;47622;47.726;3.298;2024-03-07T05:16:31;99289.69;;;-0.39
61703;BMP280;47622;47.726;3.298;2024-03-07T05:18:57;99295.34;;;-0.49
61703;BMP280;47622;47.726;3.298;2024-03-07T05:21:26;99291.50;;;-0.58
61703;BMP280;47622;47.726;3.298;2024-03-07T05:24:10;99287.06;;;-0.51
61703;BMP280;47622;47.726;3.298;2024-03-07T05:26:35;99283.66;;;-0.63
61703;BMP280;47622;47.726;3.298;2024-03-07T05:29:09;99287.22;;;-0.46
61703;BMP280;47622;47.726;3.298;2024-03-07T05:31:36;99296.88;;;-0.41
61703;BMP280;47622;47.726;3.298;2024-03-07T05:34:06;99292.78;;;-0.31
61703;BMP280;47622;47.726;3.298;2024-03-07T05:36:37;99297.78;;;-0.36
61703;BMP280;47622;47.726;3.298;2024-03-07T05:39:10;99300.22;;;-0.41
61703;BMP280;47622;47.726;3.298;2024-03-07T05:41:37;99296.06;;;-0.42
61703;BMP280;47622;47.726;3.298;2024-03-07T05:44:03;99298.28;;;-0.45
61703;BMP280;47622;47.726;3.298;2024-03-07T05:46:29;99291.78;;;-0.48
61703;BMP280;47622;47.726;3.298;2024-03-07T05:48:55;99283.41;;;-0.43
61703;BMP280;47622;47.726;3.298;2024-03-07T05:51:26;99281.75;;;-0.38
61703;BMP280;47622;47.726;3.298;2024-03-07T05:53:51;99290.16;;;-0.42
61703;BMP280;47622;47.726;3.298;2024-03-07T05:56:17;99285.84;;;-0.48
61703;BMP280;47622;47.726;3.298;2024-03-07T05:58:43;99276.22;;;-0.53
61703;BMP280;47622;47.726;3.298;2024-03-07T06:01:08;99273.69;;;-0.60
61703;BMP280;47622;47.726;3.298;2024-03-07T06:03:35;99282.06;;;-0.64
61703;BMP280;47622;47.726;3.298;2024-03-07T06:06:00;99278.91;;;-0.66
61703;BMP280;47622;47.726;3.298;2024-03-07T06:08:26;99265.50;;;-0.68
61703;BMP280;47622;47.726;3.298;2024-03-07T06:10:52;99274.69;;;-0.61
61703;BMP280;47622;47.726;3.298;2024-03-07T06:13:18;99274.28;;;-0.58
61703;BMP280;47622;47.726;3.298;2024-03-07T06:15:44;99271.75;;;-0.46
61703;BMP280;47622;47.726;3.298;2024-03-07T06:18:11;99267.31;;;-0.39
61703;BMP280;47622;47.726;3.298;2024-03-07T06:20:39;99263.47;;;-0.30
61703;BMP280;47622;47.726;3.298;2024-03-07T06:23:06;99269.75;;;-0.25
61703;BMP280;47622;47.726;3.298;2024-03-07T06:25:32;99257.44;;;-0.23
61703;BMP280;47622;47.726;3.298;2024-03-07T06:28:01;99263.81;;;-0.26
61703;BMP280;47622;47.726;3.298;2024-03-07T06:30:38;99264.16;;;-0.22
61703;BMP280;47622;47.726;3.298;2024-03-07T06:33:08;99251.41;;;-0.17
61703;BMP280;47622;47.726;3.298;2024-03-07T06:35:34;99257.69;;;-0.13
61703;BMP280;47622;47.726;3.298;2024-03-07T06:38:11;99255.94;;;-0.01
61703;BMP280;47622;47.726;3.298;2024-03-07T06:40:41;99265.72;;;0.20
61703;BMP280;47622;47.726;3.298;2024-03-07T06:43:15;99261.84;;;0.30
61703;BMP280;47622;47.726;3.298;2024-03-07T06:45:40;99261.28;;;0.28
61703;BMP280;47622;47.726;3.298;2024-03-07T06:48:07;99263.50;;;0.24
61703;BMP280;47622;47.726;3.298;2024-03-07T06:50:34;99267.00;;;0.30
61703;BMP280;47622;47.726;3.298;2024-03-07T06:53:00;99259.59;;;0.21
61703;BMP280;47622;47.726;3.298;2024-03-07T06:55:26;99271.38;;;0.29
61703;BMP280;47622;47.726;3.298;2024-03-07T06:57:53;99269.13;;;0.56
61703;BMP280;47622;47.726;3.298;2024-03-07T07:00:19;99272.81;;;0.84
61703;BMP280;47622;47.726;3.298;2024-03-07T07:02:45;99265.19;;;0.89
61703;BMP280;47622;47.726;3.298;2024-03-07T07:05:12;99264.91;;;1.25
61703;BMP280;47622;47.726;3.298;2024-03-07T07:07:46;99252.91;;;1.48
61703;BMP280;47622;47.726;3.298;2024-03-07T07:10:13;99259.81;;;1.71
61703;BMP280;47622;47.726;3.298;2024-03-07T07:15:11;99252.78;;;2.33
61703;BMP280;47622;47.726;3.298;2024-03-07T07:17:36;99246.81;;;2.88
61703;BMP280;47622;47.726;3.298;2024-03-07T07:20:03;99245.34;;;3.68
61703;BMP280;47622;47.726;3.298;2024-03-07T07:22:36;99253.50;;;3.87
61703;BMP280;47622;47.726;3.298;2024-03-07T07:25:04;99257.66;;;4.68
61703;BMP280;47622;47.726;3.298;2024-03-07T07:27:33;99264.94;;;5.54
61703;BMP280;47622;47.726;3.298;2024-03-07T07:29:59;99254.97;;;6.42
61703;BMP280;47622;47.726;3.298;2024-03-07T07:32:24;99256.13;;;6.75
61703;BMP280;47622;47.726;3.298;2024-03-07T07:34:51;99251.38;;;6.88
61703;BMP280;47622;47.726;3.298;2024-03-07T07:37:16;99261.19;;;7.11
61703;BMP280;47622;47.726;3.298;2024-03-07T07:39:42;99260.50;;;6.90
61703;BMP280;47622;47.726;3.298;2024-03-07T07:42:07;99260.34;;;6.61
61703;BMP280;47622;47.726;3.298;2024-03-07T07:44:35;99262.53;;;6.34
61703;BMP280;47622;47.726;3.298;2024-03-07T07:47:00;99262.09;;;5.76
61703;BMP280;47622;47.726;3.298;2024-03-07T07:49:26;99255.84;;;5.66
61703;BMP280;47622;47.726;3.298;2024-03-07T07:51:52;99263.91;;;5.80
61703;BMP280;47622;47.726;3.298;2024-03-07T07:54:19;99267.00;;;6.13
61703;BMP280;47622;47.726;3.298;2024-03-07T07:56:46;99255.75;;;6.33
61703;BMP280;47622;47.726;3.298;2024-03-07T07:59:13;99262.56;;;6.13
61703;BMP280;47622;47.726;3.298;2024-03-07T08:01:39;99252.44;;;5.76
61703;BMP280;47622;47.726;3.298;2024-03-07T08:04:05;99246.97;;;6.03
61703;BMP280;47622;47.726;3.298;2024-03-07T08:06:30;99243.25;;;6.35
61703;BMP280;47622;47.726;3.298;2024-03-07T08:08:56;99245.63;;;6.91
61703;BMP280;47622;47.726;3.298;2024-03-07T08:11:21;99242.81;;;7.26
61703;BMP280;47622;47.726;3.298;2024-03-07T08:13:47;99236.16;;;7.78
61703;BMP280;47622;47.726;3.298;2024-03-07T08:16:16;99239.50;;;8.08
61703;BMP280;47622;47.726;3.298;2024-03-07T08:18:42;99230.44;;;8.24
61703;BMP280;47622;47.726;3.298;2024-03-07T08:21:07;99242.44;;;8.73
61703;BMP280;47622;47.726;3.298;2024-03-07T08:23:37;99235.47;;;8.44
61703;BMP280;47622;47.726;3.298;2024-03-07T08:26:03;99240.28;;;9.12
61703;BMP280;47622;47.726;3.298;2024-03-07T08:28:31;99240.94;;;9.83
61703;BMP280;47622;47.726;3.298;2024-03-07T08:30:56;99232.06;;;11.06
61703;BMP280;47622;47.726;3.298;2024-03-07T08:33:22;99238.69;;;11.88
61703;BMP280;47622;47.726;3.298;2024-03-07T08:35:47;99225.00;;;12.95
61703;BMP280;47622;47.726;3.298;2024-03-07T08:38:15;99235.84;;;14.37
61703;BMP280;47622;47.726;3.298;2024-03-07T08:40:41;99236.53;;;15.73
61703;BMP280;47622;47.726;3.298;2024-03-07T08:43:07;99233.28;;;16.88
61703;BMP280;47622;47.726;3.298;2024-03-07T08:45:33;99236.34;;;17.53
61703;BMP280;47622;47.726;3.298;2024-03-07T08:47:58;99246.53;;;18.44
61703;BMP280;47622;47.726;3.298;2024-03-07T08:50:24;99244.03;;;18.54
61703;BMP280;47622;47.726;3.298;2024-03-07T08:52:51;99236.50;;;19.51
61703;BMP280;47622;47.726;3.298;2024-03-07T08:55:20;99238.69;;;19.46
61703;BMP280;47622;47.726;3.298;2024-03-07T08:57:45;99248.13;;;19.13
61703;BMP280;47622;47.726;3.298;2024-03-07T09:00:13;99239.13;;;19.81
61703;BMP280;47622;47.726;3.298;2024-03-07T09:02:56;99237.88;;;18.47
61703;BMP280;47622;47.726;3.298;2024-03-07T09:05:25;99232.34;;;18.17
61703;BMP280;47622;47.726;3.298;2024-03-07T09:07:51;99234.88;;;18.94
61703;BMP280;47622;47.726;3.298;2024-03-07T09:10:17;99231.69;;;18.39
61703;BMP280;47622;47.726;3.298;2024-03-07T09:12:43;99221.63;;;18.10
61703;BMP280;47622;47.726;3.298;2024-03-07T09:15:10;99219.78;;;19.24
61703;BMP280;47622;47.726;3.298;2024-03-07T09:17:36;99221.69;;;18.55
61703;BMP280;47622;47.726;3.298;2024-03-07T09:20:03;99221.69;;;17.08
61703;BMP280;47622;47.726;3.298;2024-03-07T09:22:32;99223.44;;;18.44
61703;BMP280;47622;47.726;3.298;2024-03-07T09:24:58;99218.78;;;17.83
61703;BMP280;47622;47.726;3.298;2024-03-07T09:27:24;99228.47;;;18.30
61703;BMP280;47622;47.726;3.298;2024-03-07T09:29:50;99217.22;;;19.32
61703;BMP280;47622;47.726;3.298;2024-03-07T09:32:15;99215.03;;;18.88
61703;BMP280;47622;47.726;3.298;2024-03-07T09:34:42;99215.22;;;20.15
61703;BMP280;47622;47.726;3.298;2024-03-07T09:37:08;99219.56;;;19.10
61703;BMP280;47622;47.726;3.298;2024-03-07T09:39:34;99214.22;;;19.97
61703;BMP280;47622;47.726;3.298;2024-03-07T09:42:08;99211.97;;;20.32
61703;BMP280;47622;47.726;3.298;2024-03-07T09:44:38;99216.72;;;20.16
61703;BMP280;47622;47.726;3.298;2024-03-07T09:47:06;99207.69;;;19.90
61703;BMP280;47622;47.726;3.298;2024-03-07T09:49:33;99218.34;;;19.04
61703;BMP280;47622;47.726;3.298;2024-03-07T09:52:04;99197.00;;;17.39
61703;BMP280;47622;47.726;3.298;2024-03-07T09:54:31;99198.28;;;18.19
61703;BMP280;47622;47.726;3.298;2024-03-07T09:56:59;99195.25;;;19.38
61703;BMP280;47622;47.726;3.298;2024-03-07T09:59:28;99186.41;;;18.13
61703;BMP280;47622;47.726;3.298;2024-03-07T10:01:57;99183.84;;;19.38
61703;BMP280;47622;47.726;3.298;2024-03-07T10:04:43;99176.63;;;19.68
61703;BMP280;47622;47.726;3.298;2024-03-07T10:07:15;99186.31;;;17.51
61703;BMP280;47622;47.726;3.298;2024-03-07T10:09:41;99175.19;;;18.42
61703;BMP280;47622;47.726;3.298;2024-03-07T10:12:07;99181.03;;;16.73
61703;BMP280;47622;47.726;3.298;2024-03-07T10:14:50;99168.44;;;16.98
61703;BMP280;47622;47.726;3.298;2024-03-07T10:17:17;99177.72;;;18.35
61703;BMP280;47622;47.726;3.298;2024-03-07T10:19:47;99177.13;;;18.45
61703;BMP280;47622;47.726;3.298;2024-03-07T10:22:14;99171.69;;;19.37
61703;BMP280;47622;47.726;3.298;2024-03-07T10:24:39;99168.03;;;19.78
61703;BMP280;47622;47.726;3.298;2024-03-07T10:27:05;99168.38;;;20.14
61703;BMP280;47622;47.726;3.298;2024-03-07T10:29:31;99156.03;;;18.79
61703;BMP280;47622;47.726;3.298;2024-03-07T10:31:56;99152.44;;;19.47
61703;BMP280;47622;47.726;3.298;2024-03-07T10:34:23;99160.91;;;19.89
61703;BMP280;47622;47.726;3.298;2024-03-07T10:36:50;99152.00;;;20.12
61703;BMP280;47622;47.726;3.298;2024-03-07T10:39:17;99144.09;;;20.19
61703;BMP280;47622;47.726;3.298;2024-03-07T10:41:48;99137.03;;;19.97
61703;BMP280;47622;47.726;3.298;2024-03-07T10:44:34;99147.34;;;20.02
61703;BMP280;47622;47.726;3.298;2024-03-07T10:47:03;99134.97;;;20.71
61703;BMP280;47622;47.726;3.298;2024-03-07T10:49:34;99123.78;;;20.04
61703;BMP280;47622;47.726;3.298;2024-03-07T10:52:16;99121.19;;;18.57
61703;BMP280;47622;47.726;3.298;2024-03-07T10:54:55;99140.91;;;19.36
61703;BMP280;47622;47.726;3.298;2024-03-07T10:57:51;99130.84;;;17.62
61703;BMP280;47622;47.726;3.298;2024-03-07T11:00:27;99116.13;;;19.02
61703;BMP280;47622;47.726;3.298;2024-03-07T11:03:09;99110.06;;;19.31
61703;BMP280;47622;47.726;3.298;2024-03-07T11:05:36;99105.63;;;19.12
61703;BMP280;47622;47.726;3.298;2024-03-07T11:08:03;99100.94;;;18.76
61703;BMP280;47622;47.726;3.298;2024-03-07T11:10:37;99094.38;;;18.96
61703;BMP280;47622;47.726;3.298;2024-03-07T11:13:07;99088.59;;;18.61
61703;BMP280;47622;47.726;3.298;2024-03-07T11:15:36;99096.75;;;16.90
61703;BMP280;47622;47.726;3.298;2024-03-07T11:18:02;99097.28;;;16.49
61703;BMP280;47622;47.726;3.298;2024-03-07T11:20:37;99096.94;;;15.26
61703;BMP280;47622;47.726;3.298;2024-03-07T11:23:28;99091.22;;;14.76
61703;BMP280;47622;47.726;3.298;2024-03-07T11:26:07;99087.63;;;14.02
61703;BMP280;47622;47.726;3.298;2024-03-07T11:28:37;99080.53;;;14.15
61703;BMP280;47622;47.726;3.298;2024-03-07T11:31:25;99085.56;;;13.66
61703;BMP280;47622;47.726;3.298;2024-03-07T11:34:14;99074.31;;;13.36
61703;BMP280;47622;47.726;3.298;2024-03-07T11:36:46;99078.06;;;13.35
61703;BMP280;47622;47.726;3.298;2024-03-07T11:42:01;99063.44;;;12.78
61703;BMP280;47622;47.726;3.298;2024-03-07T11:44:31;99051.91;;;12.45
61703;BMP280;47622;47.726;3.298;2024-03-07T11:47:01;99054.50;;;13.00
61703;BMP280;47622;47.726;3.298;2024-03-07T11:49:37;99038.97;;;13.58
61703;BMP280;47622;47.726;3.298;2024-03-07T11:52:05;99038.41;;;13.94
61703;BMP280;47622;47.726;3.298;2024-03-07T11:54:39;99034.22;;;14.26
61703;BMP280;47622;47.726;3.298;2024-03-07T11:57:18;99024.59;;;14.79
61703;BMP280;47622;47.726;3.298;2024-03-07T12:00:03;99011.38;;;14.66
61703;BMP280;47622;47.726;3.298;2024-03-07T12:02:37;99014.25;;;14.74
61703;BMP280;47622;47.726;3.298;2024-03-07T12:05:06;99010.25;;;14.92
61703;BMP280;47622;47.726;3.298;2024-03-07T12:07:32;99004.97;;;14.92
61703;BMP280;47622;47.726;3.298;2024-03-07T12:09:59;99004.44;;;14.38
61703;BMP280;47622;47.726;3.298;2024-03-07T12:12:29;98998.03;;;14.39
61703;BMP280;47622;47.726;3.298;2024-03-07T12:14:55;98983.91;;;14.55
61703;BMP280;47622;47.726;3.298;2024-03-07T12:17:21;98984.31;;;14.70
61703;BMP280;47622;47.726;3.298;2024-03-07T12:19:48;98976.38;;;14.82
61703;BMP280;47622;47.726;3.298;2024-03-07T12:22:19;98979.88;;;14.98
61703;BMP280;47622;47.726;3.298;2024-03-07T12:25:08;98980.44;;;13.52
61703;BMP280;47622;47.726;3.298;2024-03-07T12:27:36;98975.09;;;13.82
61703;BMP280;47622;47.726;3.298;2024-03-07T12:30:14;98970.06;;;13.14
61703;BMP280;47622;47.726;3.298;2024-03-07T12:32:51;98959.78;;;13.21
61703;BMP280;47622;47.726;3.298;2024-03-07T12:35:17;98954.56;;;13.33
61703;BMP280;47622;47.726;3.298;2024-03-07T12:37:44;98944.84;;;13.67
61703;BMP280;47622;47.726;3.298;2024-03-07T12:40:14;98934.03;;;13.60
61703;BMP280;47622;47.726;3.298;2024-03-07T12:42:48;98940.41;;;13.59
61703;BMP280;47622;47.726;3.298;2024-03-07T12:45:16;98934.97;;;13.22
61703;BMP280;47622;47.726;3.298;2024-03-07T12:47:52;98936.47;;;13.11
61703;BMP280;47622;47.726;3.298;2024-03-07T12:50:20;98929.72;;;13.22
61703;BMP280;47622;47.726;3.298;2024-03-07T12:52:49;98921.66;;;13.39
61703;BMP280;47622;47.726;3.298;2024-03-07T12:55:18;98919.22;;;13.88
61703;BMP280;47622;47.726;3.298;2024-03-07T12:57:44;98925.72;;;14.27
61703;BMP280;47622;47.726;3.298;2024-03-07T13:00:11;98918.13;;;14.50
61703;BMP280;47622;47.726;3.298;2024-03-07T13:02:48;98913.97;;;14.13
61703;BMP280;47622;47.726;3.298;2024-03-07T13:05:14;98912.72;;;13.53
61703;BMP280;47622;47.726;3.298;2024-03-07T13:07:48;98908.41;;;13.15
61703;BMP280;47622;47.726;3.298;2024-03-07T13:10:16;98904.25;;;13.14
61703;BMP280;47622;47.726;3.298;2024-03-07T13:12:44;98896.72;;;12.83
61703;BMP280;47622;47.726;3.298;2024-03-07T13:15:11;98897.06;;;12.73
61703;BMP280;47622;47.726;3.298;2024-03-07T13:17:37;98898.50;;;12.70
61703;BMP280;47622;47.726;3.298;2024-03-07T13:20:04;98885.69;;;12.90
61703;BMP280;47622;47.726;3.298;2024-03-07T13:22:37;98881.81;;;13.08
61703;BMP280;47622;47.726;3.298;2024-03-07T13:25:03;98875.97;;;13.23
61703;BMP280;47622;47.726;3.298;2024-03-07T13:27:40;98872.88;;;12.79
61703;BMP280;47622;47.726;3.298;2024-03-07T13:30:07;98875.25;;;12.72
61703;BMP280;47622;47.726;3.298;2024-03-07T13:32:33;98872.53;;;12.39
61703;BMP280;47622;47.726;3.298;2024-03-07T13:34:59;98875.81;;;12.28
61703;BMP280;47622;47.726;3.298;2024-03-07T13:37:27;98862.41;;;12.50
61703;BMP280;47622;47.726;3.298;2024-03-07T13:39:52;98867.28;;;12.60
61703;BMP280;47622;47.726;3.298;2024-03-07T13:42:33;98860.66;;;12.84
61703;BMP280;47622;47.726;3.298;2024-03-07T13:44:58;98853.94;;;12.86
61703;BMP280;47622;47.726;3.298;2024-03-07T13:47:24;98858.38;;;12.73
61703;BMP280;47622;47.726;3.298;2024-03-07T13:49:50;98844.28;;;12.57
61703;BMP280;47622;47.726;3.298;2024-03-07T13:52:16;98840.97;;;12.60
61703;BMP280;47622;47.726;3.298;2024-03-07T13:54:45;98839.19;;;12.52
61703;BMP280;47622;47.726;3.298;2024-03-07T13:57:26;98832.13;;;12.44
61703;BMP280;47622;47.726;3.298;2024-03-07T14:05:37;98828.94;;;12.00
61703;BMP280;47622;47.726;3.298;2024-03-07T14:25:51;98824.56;;;11.66
61703;BMP280;47622;47.726;3.298;2024-03-07T14:30:53;98816.06;;;11.61
61703;BMP280;47622;47.726;3.298;2024-03-07T14:34:01;98815.31;;;11.60
61703;BMP280;47622;47.726;3.298;2024-03-07T14:36:44;98812.97;;;11.58
61703;BMP280;47622;47.726;3.298;2024-03-07T14:39:11;98803.09;;;11.64
61703;BMP280;47622;47.726;3.298;2024-03-07T14:42:01;98806.31;;;11.70
61703;BMP280;47622;47.726;3.298;2024-03-07T14:44:28;98797.53;;;11.66
61703;BMP280;47622;47.726;3.298;2024-03-07T14:46:59;98800.47;;;11.64
61703;BMP280;47622;47.726;3.298;2024-03-07T14:49:26;98798.06;;;11.80
61703;BMP280;47622;47.726;3.298;2024-03-07T14:51:53;98796.63;;;12.00